createdAt,value
2023-05-23T00:01:09.229Z,72.12
2023-05-23T00:03:37.520Z,72.28
2023-05-23T00:06:07.007Z,72.04
2023-05-23T00:08:35.118Z,72.61
2023-05-23T00:11:02.438Z,72.43
2023-05-23T00:13:29.840Z,72.46
2023-05-23T00:15:57.432Z,72.11
2023-05-23T00:18:24.889Z,72.28
2023-05-23T00:20:52.321Z,71.86
2023-05-23T00:23:20.893Z,72.64
2023-05-23T00:25:54.339Z,72.63
2023-05-23T00:28:22.494Z,72.21
2023-05-23T00:30:50.086Z,71.11
2023-05-23T00:33:17.903Z,71.64
2023-05-23T00:35:45.388Z,72.29
2023-05-23T00:38:14.477Z,72.83
2023-05-23T00:40:41.842Z,73.08
2023-05-23T00:43:10.054Z,72.42
2023-05-23T00:45:37.416Z,72.59
2023-05-23T00:48:06.883Z,72.36
2023-05-23T00:50:34.257Z,72.79
2023-05-23T00:53:01.861Z,72.92
2023-05-23T00:55:29.822Z,73.42
2023-05-23T00:57:57.372Z,72.45
2023-05-23T01:00:25.508Z,71.91
2023-05-23T01:02:53.662Z,71.85
2023-05-23T01:05:25.122Z,72.19
2023-05-23T01:07:52.953Z,72.33
2023-05-23T01:10:25.629Z,71.66
2023-05-23T01:13:21.142Z,72.17
2023-05-23T01:16:06.083Z,72.61
2023-05-23T01:18:46.620Z,72.72
2023-05-23T01:21:18.231Z,71.37
2023-05-23T01:23:57.541Z,71.90
2023-05-23T01:26:44.652Z,72.87
2023-05-23T01:29:39.518Z,72.00
2023-05-23T01:32:12.213Z,72.53
2023-05-23T01:34:41.426Z,72.44
2023-05-23T01:37:10.774Z,72.42
2023-05-23T01:39:39.244Z,72.59
2023-05-23T01:42:07.369Z,73.60
2023-05-23T01:44:36.661Z,73.10
2023-05-23T01:47:05.841Z,73.11
2023-05-23T01:49:34.987Z,73.56
2023-05-23T01:52:02.664Z,74.26
2023-05-23T01:54:30.593Z,74.58
2023-05-23T01:56:58.495Z,75.33
2023-05-23T01:59:26.322Z,75.46
2023-05-23T02:01:54.801Z,75.88
2023-05-23T02:04:22.363Z,76.52
2023-05-23T02:06:49.830Z,76.72
2023-05-23T02:09:17.431Z,77.14
2023-05-23T02:11:45.773Z,77.96
2023-05-23T02:14:13.246Z,79.42
2023-05-23T02:16:40.686Z,79.77
2023-05-23T02:19:08.226Z,79.98
2023-05-23T02:21:35.885Z,80.79
2023-05-23T02:24:04.932Z,81.47
2023-05-23T02:26:32.855Z,81.45
2023-05-23T02:29:00.853Z,81.05
2023-05-23T02:31:29.078Z,80.94
2023-05-23T02:33:56.520Z,80.55
2023-05-23T02:36:23.903Z,80.79
2023-05-23T02:38:51.404Z,81.47
2023-05-23T02:41:18.823Z,81.69
2023-05-23T02:43:47.567Z,82.26
2023-05-23T02:46:16.345Z,82.58
2023-05-23T02:48:43.739Z,82.48
2023-05-23T02:51:13.788Z,82.13
2023-05-23T02:53:41.387Z,81.99
2023-05-23T02:56:09.898Z,81.53
2023-05-23T02:58:37.383Z,81.62
2023-05-23T03:01:07.054Z,81.04
2023-05-23T03:03:35.406Z,81.43
2023-05-23T03:06:05.093Z,81.97
2023-05-23T03:08:32.651Z,83.47
2023-05-23T03:11:00.120Z,83.37
2023-05-23T03:13:28.952Z,83.67
2023-05-23T03:15:56.417Z,83.06
2023-05-23T03:18:23.882Z,81.87
2023-05-23T03:20:51.272Z,81.59
2023-05-23T03:23:18.738Z,80.35
2023-05-23T03:25:46.207Z,80.77
2023-05-23T03:28:13.613Z,81.03
2023-05-23T03:30:41.366Z,81.05
2023-05-23T03:33:09.454Z,79.95
2023-05-23T03:35:36.949Z,80.38
2023-05-23T03:38:04.347Z,80.19
2023-05-23T03:40:33.098Z,79.52
2023-05-23T03:43:09.163Z,79.26
2023-05-23T03:45:40.088Z,80.25
2023-05-23T03:48:13.148Z,80.16
2023-05-23T03:50:41.969Z,80.20
2023-05-23T03:53:09.592Z,79.82
2023-05-23T03:55:39.493Z,79.08
2023-05-23T03:58:07.336Z,80.68
2023-05-23T04:00:34.839Z,79.53
2023-05-23T04:03:05.442Z,78.58
2023-05-23T04:05:33.047Z,77.21
2023-05-23T04:08:03.984Z,76.18
2023-05-23T04:10:31.923Z,76.31
2023-05-23T04:12:59.750Z,77.16
2023-05-23T04:15:29.474Z,75.36
2023-05-23T04:18:07.517Z,74.17
2023-05-23T04:20:35.223Z,74.08
2023-05-23T04:23:02.589Z,75.50
2023-05-23T04:25:31.855Z,76.09
2023-05-23T04:28:12.557Z,76.00
2023-05-23T04:30:40.124Z,76.51
2023-05-23T04:33:08.097Z,75.86
2023-05-23T04:35:39.041Z,75.67
2023-05-23T04:38:07.291Z,77.13
2023-05-23T04:40:34.828Z,76.33
2023-05-23T04:43:09.363Z,74.68
2023-05-23T04:45:51.244Z,73.58
2023-05-23T04:48:28.453Z,73.57
2023-05-23T04:50:57.487Z,73.47
2023-05-23T04:53:24.932Z,72.91
2023-05-23T04:55:52.360Z,72.72
2023-05-23T04:58:19.866Z,71.70
2023-05-23T05:00:47.711Z,70.92
2023-05-23T05:03:16.946Z,70.75
2023-05-23T05:05:46.321Z,71.19
2023-05-23T05:08:14.412Z,70.77
2023-05-23T05:10:42.313Z,70.70
2023-05-23T05:13:11.222Z,70.71
2023-05-23T05:15:44.674Z,70.27
2023-05-23T05:18:13.697Z,70.12
2023-05-23T05:20:41.987Z,70.26
2023-05-23T05:23:09.923Z,69.58
2023-05-23T05:25:38.428Z,69.92
2023-05-23T05:28:06.101Z,69.80
2023-05-23T05:30:37.648Z,69.26
2023-05-23T05:33:08.096Z,69.04
2023-05-23T05:35:38.529Z,69.75
2023-05-23T05:38:06.984Z,70.08
2023-05-23T05:40:34.754Z,68.95
2023-05-23T05:43:02.497Z,67.49
2023-05-23T05:45:29.929Z,67.88
2023-05-23T05:47:58.904Z,67.79
2023-05-23T05:50:27.641Z,68.92
2023-05-23T05:52:55.164Z,68.97
2023-05-23T05:55:23.301Z,69.25
2023-05-23T05:57:53.962Z,67.92
2023-05-23T06:00:22.248Z,66.91
2023-05-23T06:02:57.771Z,66.97
2023-05-23T06:05:44.411Z,66.37
2023-05-23T06:08:12.354Z,65.06
2023-05-23T06:10:40.050Z,65.14
2023-05-23T06:13:07.677Z,65.75
2023-05-23T06:15:36.710Z,66.48
2023-05-23T06:18:04.249Z,66.94
2023-05-23T06:20:32.562Z,66.53
2023-05-23T06:23:05.675Z,66.78
2023-05-23T06:25:33.261Z,67.05
2023-05-23T06:28:01.243Z,67.33
2023-05-23T06:30:29.577Z,67.87
2023-05-23T06:32:57.401Z,67.81
2023-05-23T06:35:26.072Z,67.07
2023-05-23T06:37:53.888Z,66.38
2023-05-23T06:40:21.401Z,66.84
2023-05-23T06:42:50.229Z,66.08
2023-05-23T06:45:38.454Z,65.40
2023-05-23T06:48:06.161Z,63.61
2023-05-23T06:50:35.838Z,63.29
2023-05-23T06:53:04.146Z,62.43
2023-05-23T06:55:33.875Z,61.82
2023-05-23T06:58:04.271Z,62.08
2023-05-23T07:00:32.212Z,62.26
2023-05-23T07:03:10.232Z,62.05
2023-05-23T07:05:40.887Z,61.28
2023-05-23T07:08:13.218Z,60.85
2023-05-23T07:10:46.446Z,61.23
2023-05-23T07:13:36.921Z,60.16
2023-05-23T07:16:05.080Z,58.24
2023-05-23T07:18:37.648Z,58.71
2023-05-23T07:21:06.115Z,58.26
2023-05-23T07:23:34.595Z,57.98
2023-05-23T07:26:03.353Z,59.94
2023-05-23T07:28:56.992Z,59.05
2023-05-23T07:31:50.630Z,58.89
2023-05-23T07:34:18.268Z,58.47
2023-05-23T07:36:53.835Z,58.42
2023-05-23T07:39:24.284Z,57.83
2023-05-23T07:41:52.774Z,57.50
2023-05-23T07:44:23.950Z,57.24
2023-05-23T07:46:52.838Z,57.22
2023-05-23T07:49:21.004Z,57.70
2023-05-23T07:51:48.365Z,57.83
2023-05-23T07:54:16.755Z,58.99
2023-05-23T07:56:45.233Z,58.63
2023-05-23T07:59:13.594Z,59.59
2023-05-23T08:01:42.392Z,59.99
2023-05-23T08:04:13.724Z,60.61
2023-05-23T08:07:03.634Z,61.22
2023-05-23T08:09:41.416Z,60.58
2023-05-23T08:12:11.056Z,59.52
2023-05-23T08:14:50.635Z,58.11
2023-05-23T08:17:31.330Z,56.39
2023-05-23T08:20:00.668Z,56.70
2023-05-23T08:22:28.587Z,56.61
2023-05-23T08:24:56.330Z,57.13
2023-05-23T08:27:24.883Z,57.19
2023-05-23T08:29:56.862Z,56.45
2023-05-23T08:32:24.815Z,57.22
2023-05-23T08:34:52.941Z,57.54
2023-05-23T08:37:20.545Z,56.54
2023-05-23T08:39:48.040Z,57.04
2023-05-23T08:42:34.249Z,57.00
2023-05-23T08:45:02.260Z,56.66
2023-05-23T08:47:34.053Z,56.87
2023-05-23T08:50:06.738Z,55.97
2023-05-23T08:52:37.993Z,56.14
2023-05-23T08:55:07.022Z,53.95
2023-05-23T08:57:36.189Z,53.61
2023-05-23T09:00:20.410Z,52.53
2023-05-23T09:02:48.769Z,54.05
2023-05-23T09:05:36.754Z,53.34
2023-05-23T09:08:04.510Z,53.39
2023-05-23T09:10:32.265Z,53.25
2023-05-23T09:13:01.440Z,52.27
2023-05-23T09:15:31.812Z,51.29
2023-05-23T09:18:04.336Z,50.19
2023-05-23T09:20:33.829Z,50.30
2023-05-23T09:23:07.972Z,49.91
2023-05-23T09:25:39.958Z,48.71
2023-05-23T09:28:07.429Z,49.60
2023-05-23T09:30:39.549Z,46.73
2023-05-23T09:33:07.066Z,46.19
2023-05-23T09:35:35.096Z,46.90
2023-05-23T09:38:02.492Z,46.69
2023-05-23T09:40:32.072Z,45.88
2023-05-23T09:43:05.568Z,46.58
2023-05-23T09:45:33.827Z,46.87
2023-05-23T09:48:02.874Z,45.71
2023-05-23T09:50:33.915Z,46.16
2023-05-23T09:53:02.899Z,45.84
2023-05-23T09:55:30.827Z,46.39
2023-05-23T09:57:59.972Z,45.30
2023-05-23T10:00:28.541Z,45.40
2023-05-23T10:03:17.850Z,44.12
2023-05-23T10:05:49.062Z,43.60
2023-05-23T10:08:27.141Z,42.72
2023-05-23T10:11:14.508Z,41.84
2023-05-23T10:13:47.197Z,41.45
2023-05-23T10:16:23.256Z,42.26
2023-05-23T10:18:57.901Z,42.73
2023-05-23T10:21:33.258Z,42.65
2023-05-23T10:24:02.325Z,41.98
2023-05-23T10:26:29.631Z,41.11
2023-05-23T10:28:57.914Z,40.25
2023-05-23T10:31:25.300Z,42.04
2023-05-23T10:34:02.464Z,41.46
2023-05-23T10:36:40.128Z,41.12
2023-05-23T10:39:24.735Z,41.07
2023-05-23T10:42:01.189Z,41.42
2023-05-23T10:44:29.481Z,42.19
2023-05-23T10:47:01.654Z,41.81
2023-05-23T10:49:45.579Z,42.59
2023-05-23T10:52:19.331Z,43.17
2023-05-23T10:54:58.634Z,42.68
2023-05-23T10:57:27.934Z,43.64
2023-05-23T10:59:55.798Z,44.25
2023-05-23T11:02:28.358Z,43.04
2023-05-23T11:05:25.046Z,43.49
2023-05-23T11:08:16.425Z,43.35
2023-05-23T11:10:53.628Z,41.79
2023-05-23T11:13:22.565Z,40.65
2023-05-23T11:15:50.526Z,38.42
2023-05-23T11:18:27.557Z,39.99
2023-05-23T11:20:55.330Z,40.56
2023-05-23T11:23:24.257Z,39.72
2023-05-23T11:25:53.700Z,38.94
2023-05-23T11:28:21.433Z,39.39
2023-05-23T11:30:49.825Z,38.48
2023-05-23T11:33:18.611Z,38.95
2023-05-23T11:35:48.009Z,39.96
2023-05-23T11:38:17.043Z,39.38
2023-05-23T11:40:46.914Z,39.42
2023-05-23T11:43:16.843Z,39.74
2023-05-23T11:45:47.035Z,39.49
2023-05-23T11:48:17.007Z,39.07
2023-05-23T11:50:53.064Z,38.55
2023-05-23T11:53:23.059Z,39.02
2023-05-23T11:55:55.624Z,38.09
2023-05-23T11:58:26.850Z,37.99
2023-05-23T12:01:04.188Z,38.87
2023-05-23T12:03:51.259Z,38.22
2023-05-23T12:06:19.341Z,38.47
2023-05-23T12:08:51.551Z,38.76
2023-05-23T12:11:19.082Z,37.43
2023-05-23T12:13:46.938Z,37.80
2023-05-23T12:16:17.610Z,38.83
2023-05-23T12:18:45.713Z,39.13
2023-05-23T12:21:13.116Z,39.16
2023-05-23T12:23:42.165Z,38.68
2023-05-23T12:26:12.246Z,39.18
2023-05-23T12:28:47.965Z,38.40
2023-05-23T12:31:21.395Z,35.22
2023-05-23T12:33:49.332Z,35.69
2023-05-23T12:36:32.407Z,37.42
2023-05-23T12:39:04.296Z,37.65
2023-05-23T12:41:33.783Z,38.93
2023-05-23T12:44:02.868Z,40.08
2023-05-23T12:46:30.452Z,40.67
2023-05-23T12:48:57.971Z,40.98
2023-05-23T12:51:25.642Z,40.12
2023-05-23T12:53:54.778Z,40.94
2023-05-23T12:56:22.662Z,41.04
2023-05-23T12:58:50.138Z,40.65
2023-05-23T13:01:17.666Z,40.64
2023-05-23T13:03:45.132Z,39.90
2023-05-23T13:06:12.674Z,40.11
2023-05-23T13:08:40.136Z,40.14
2023-05-23T13:11:07.705Z,40.12
2023-05-23T13:13:35.504Z,38.78
2023-05-23T13:16:03.063Z,39.01
2023-05-23T13:18:30.917Z,39.53
2023-05-23T13:20:58.324Z,37.47
2023-05-23T13:23:26.259Z,37.27
2023-05-23T13:25:54.008Z,37.26
2023-05-23T13:28:21.437Z,38.67
2023-05-23T13:30:49.014Z,38.77
2023-05-23T13:33:16.971Z,38.06
2023-05-23T13:35:44.648Z,38.71
2023-05-23T13:38:12.987Z,38.86
2023-05-23T13:40:40.620Z,38.34
2023-05-23T13:43:08.268Z,39.00
2023-05-23T13:45:35.741Z,39.33
2023-05-23T13:48:03.151Z,38.55
2023-05-23T13:50:30.859Z,36.79
2023-05-23T13:52:58.591Z,37.83
2023-05-23T13:55:26.594Z,37.94
2023-05-23T13:57:54.164Z,37.98
2023-05-23T14:00:21.727Z,38.62
2023-05-23T14:02:49.703Z,38.84
2023-05-23T14:05:19.457Z,39.66
2023-05-23T14:07:47.596Z,39.26
2023-05-23T14:10:17.301Z,40.30
2023-05-23T14:12:44.736Z,39.98
2023-05-23T14:15:12.304Z,39.16
2023-05-23T14:17:39.825Z,37.37
2023-05-23T14:20:08.001Z,38.15
2023-05-23T14:22:35.448Z,38.48
2023-05-23T14:25:02.985Z,37.09
2023-05-23T14:27:30.553Z,36.58
2023-05-23T14:29:58.033Z,37.37
2023-05-23T14:32:25.581Z,38.04
2023-05-23T14:34:53.171Z,37.82
2023-05-23T14:37:20.674Z,38.91
2023-05-23T14:39:48.147Z,36.22
2023-05-23T14:42:15.607Z,36.24
2023-05-23T14:44:43.010Z,36.45
2023-05-23T14:47:10.329Z,35.42
2023-05-23T14:49:37.829Z,34.07
2023-05-23T14:52:05.530Z,34.49
2023-05-23T14:54:33.155Z,34.90
2023-05-23T14:57:00.556Z,35.10
2023-05-23T14:59:29.096Z,35.85
2023-05-23T15:01:56.711Z,36.60
2023-05-23T15:04:24.617Z,35.91
2023-05-23T15:06:52.184Z,36.24
2023-05-23T15:09:19.597Z,37.55
2023-05-23T15:11:49.391Z,34.60
2023-05-23T15:14:16.938Z,36.19
2023-05-23T15:16:45.548Z,37.24
2023-05-23T15:19:13.094Z,37.34
2023-05-23T15:21:46.335Z,37.86
2023-05-23T15:24:17.548Z,38.40
2023-05-23T15:26:45.043Z,36.76
2023-05-23T15:29:14.607Z,37.42
2023-05-23T15:31:42.103Z,37.65
2023-05-23T15:34:09.609Z,37.08
2023-05-23T15:36:37.195Z,37.31
2023-05-23T15:39:06.270Z,39.16
2023-05-23T15:41:33.767Z,38.57
2023-05-23T15:44:01.174Z,38.81
2023-05-23T15:46:28.650Z,38.63
2023-05-23T15:49:05.065Z,38.71
2023-05-23T15:51:41.088Z,36.88
2023-05-23T15:54:08.713Z,38.03
2023-05-23T15:56:36.445Z,38.63
2023-05-23T15:59:04.066Z,37.55
2023-05-23T16:01:33.082Z,35.85
2023-05-23T16:04:00.792Z,35.17
2023-05-23T16:06:28.336Z,35.08
2023-05-23T16:08:55.899Z,34.55
2023-05-23T16:11:24.087Z,34.50
2023-05-23T16:13:51.454Z,33.59
2023-05-23T16:16:19.004Z,33.68
2023-05-23T16:18:46.568Z,34.48
2023-05-23T16:21:14.026Z,34.28
2023-05-23T16:23:41.589Z,34.12
2023-05-23T16:26:09.008Z,34.95
2023-05-23T16:28:36.512Z,34.90
2023-05-23T16:31:04.169Z,35.67
2023-05-23T16:33:31.754Z,36.41
2023-05-23T16:35:59.195Z,37.15
2023-05-23T16:38:26.740Z,37.70
2023-05-23T16:40:54.113Z,37.78
2023-05-23T16:43:21.566Z,38.34
2023-05-23T16:45:49.300Z,38.12
2023-05-23T16:48:18.688Z,37.71
2023-05-23T16:50:46.204Z,37.82
2023-05-23T16:53:13.643Z,38.75
2023-05-23T16:55:41.589Z,39.01
2023-05-23T16:58:09.175Z,39.28
2023-05-23T17:00:36.711Z,39.06
2023-05-23T17:03:05.095Z,37.57
2023-05-23T17:05:33.847Z,38.97
2023-05-23T17:08:02.324Z,39.68
2023-05-23T17:10:29.691Z,39.92
2023-05-23T17:12:57.487Z,39.74
2023-05-23T17:15:24.930Z,40.02
2023-05-23T17:17:52.334Z,39.08
2023-05-23T17:20:24.036Z,38.59
2023-05-23T17:22:54.970Z,38.79
2023-05-23T17:25:22.453Z,38.95
2023-05-23T17:27:49.890Z,39.59
2023-05-23T17:30:18.839Z,40.20
2023-05-23T17:32:46.836Z,40.53
2023-05-23T17:35:14.425Z,40.95
2023-05-23T17:37:43.696Z,41.19
2023-05-23T17:40:12.213Z,41.38
2023-05-23T17:42:40.832Z,41.57
2023-05-23T17:45:09.854Z,41.35
2023-05-23T17:47:37.643Z,41.32
2023-05-23T17:50:06.341Z,41.28
2023-05-23T17:52:34.092Z,41.93
2023-05-23T17:55:01.862Z,42.25
2023-05-23T17:57:31.146Z,42.41
2023-05-23T18:00:01.546Z,41.95
2023-05-23T18:02:29.074Z,42.61
2023-05-23T18:04:56.597Z,42.64
2023-05-23T18:07:24.027Z,42.74
2023-05-23T18:09:51.452Z,42.88
2023-05-23T18:12:18.800Z,43.11
2023-05-23T18:14:46.214Z,43.36
2023-05-23T18:17:13.679Z,43.49
2023-05-23T18:19:42.156Z,43.37
2023-05-23T18:22:09.730Z,43.83
2023-05-23T18:24:37.100Z,44.01
2023-05-23T18:27:04.858Z,44.38
2023-05-23T18:29:32.236Z,44.62
2023-05-23T18:31:59.535Z,45.29
2023-05-23T18:34:29.273Z,45.39
2023-05-23T18:36:57.793Z,45.74
2023-05-23T18:39:25.239Z,45.96
2023-05-23T18:41:52.599Z,45.74
2023-05-23T18:44:21.145Z,46.05
2023-05-23T18:46:48.677Z,46.00
2023-05-23T18:49:16.218Z,46.16
2023-05-23T18:51:43.682Z,46.33
2023-05-23T18:54:11.348Z,46.50
2023-05-23T18:56:38.877Z,46.51
2023-05-23T18:59:06.729Z,46.60
2023-05-23T19:01:34.210Z,46.27
2023-05-23T19:04:02.052Z,46.25
2023-05-23T19:06:29.545Z,46.30
2023-05-23T19:08:56.969Z,46.72
2023-05-23T19:11:24.885Z,47.20
2023-05-23T19:13:52.287Z,47.38
2023-05-23T19:16:20.961Z,47.53
2023-05-23T19:18:48.557Z,47.35
2023-05-23T19:21:16.373Z,48.22
2023-05-23T19:23:43.942Z,48.30
2023-05-23T19:26:13.380Z,48.20
2023-05-23T19:28:40.841Z,47.88
2023-05-23T19:31:09.417Z,47.76
2023-05-23T19:33:36.935Z,47.60
2023-05-23T19:36:05.755Z,47.90
2023-05-23T19:38:33.211Z,48.35
2023-05-23T19:41:00.719Z,49.05
2023-05-23T19:43:28.171Z,49.08
2023-05-23T19:45:55.639Z,49.79
2023-05-23T19:48:23.481Z,49.11
2023-05-23T19:50:51.062Z,49.58
2023-05-23T19:53:18.451Z,48.44
2023-05-23T19:55:46.097Z,49.96
2023-05-23T19:58:13.625Z,50.50
2023-05-23T20:00:41.695Z,51.00
2023-05-23T20:03:09.525Z,51.23
2023-05-23T20:05:37.208Z,52.21
2023-05-23T20:08:04.793Z,52.68
2023-05-23T20:10:32.213Z,52.71
2023-05-23T20:12:59.752Z,53.00
2023-05-23T20:15:38.693Z,52.88
2023-05-23T20:18:07.832Z,53.38
2023-05-23T20:20:35.602Z,53.32
2023-05-23T20:23:03.337Z,53.63
2023-05-23T20:25:31.550Z,53.83
2023-05-23T20:27:59.011Z,53.80
2023-05-23T20:30:26.609Z,53.77
2023-05-23T20:32:54.604Z,53.65
2023-05-23T20:35:23.144Z,53.74
2023-05-23T20:37:57.076Z,53.98
2023-05-23T20:40:25.645Z,53.58
2023-05-23T20:42:53.623Z,53.64
2023-05-23T20:45:21.740Z,53.90
2023-05-23T20:47:49.244Z,54.05
2023-05-23T20:50:17.967Z,53.81
2023-05-23T20:52:45.378Z,53.87
2023-05-23T20:55:13.084Z,52.72
2023-05-23T20:57:40.527Z,53.11
2023-05-23T21:00:12.619Z,53.46
2023-05-23T21:02:40.851Z,53.81
2023-05-23T21:05:09.721Z,54.11
2023-05-23T21:07:37.194Z,54.13
2023-05-23T21:10:05.461Z,53.67
2023-05-23T21:12:32.949Z,53.58
2023-05-23T21:15:00.631Z,52.61
2023-05-23T21:17:28.085Z,52.55
2023-05-23T21:19:55.607Z,52.71
2023-05-23T21:22:23.090Z,52.66
2023-05-23T21:24:50.609Z,52.46
2023-05-23T21:27:18.067Z,52.37
2023-05-23T21:29:46.985Z,52.51
2023-05-23T21:32:14.606Z,52.38
2023-05-23T21:34:41.981Z,52.62
2023-05-23T21:37:09.397Z,52.69
2023-05-23T21:39:50.544Z,52.72
2023-05-23T21:42:19.634Z,51.74
2023-05-23T21:44:47.166Z,51.84
2023-05-23T21:47:14.590Z,52.70
2023-05-23T21:49:42.240Z,52.51
2023-05-23T21:52:09.683Z,52.19
2023-05-23T21:54:37.068Z,52.70
2023-05-23T21:57:04.775Z,52.85
2023-05-23T21:59:32.203Z,52.82
2023-05-23T22:01:59.740Z,53.02
2023-05-23T22:04:27.696Z,53.31
2023-05-23T22:06:55.126Z,53.48
2023-05-23T22:09:22.523Z,54.14
2023-05-23T22:11:49.876Z,54.52
2023-05-23T22:14:17.339Z,54.88
2023-05-23T22:16:45.216Z,55.20
2023-05-23T22:19:12.870Z,55.14
2023-05-23T22:21:40.592Z,54.82
2023-05-23T22:24:08.091Z,54.34
2023-05-23T22:26:35.641Z,54.17
2023-05-23T22:29:03.620Z,53.99
2023-05-23T22:31:31.042Z,54.16
2023-05-23T22:33:58.435Z,54.33
2023-05-23T22:36:25.825Z,54.11
2023-05-23T22:38:53.240Z,54.06
2023-05-23T22:41:22.183Z,54.32
2023-05-23T22:43:49.622Z,54.18
2023-05-23T22:46:17.032Z,54.22
2023-05-23T22:48:45.224Z,54.44
2023-05-23T22:51:14.495Z,54.72
2023-05-23T22:53:42.094Z,54.55
2023-05-23T22:56:09.556Z,55.27
2023-05-23T22:58:36.941Z,55.93
2023-05-23T23:01:04.452Z,55.79
2023-05-23T23:03:31.928Z,56.41
2023-05-23T23:05:59.444Z,57.18
2023-05-23T23:08:27.427Z,57.52
2023-05-23T23:10:54.786Z,57.73
2023-05-23T23:13:22.219Z,57.61
2023-05-23T23:15:50.376Z,57.45
2023-05-23T23:18:18.925Z,57.43
2023-05-23T23:20:46.901Z,57.26
2023-05-23T23:23:14.820Z,57.63
2023-05-23T23:25:42.203Z,57.68
2023-05-23T23:28:09.697Z,57.50
2023-05-23T23:30:37.096Z,57.50
2023-05-23T23:33:15.043Z,57.40
2023-05-23T23:35:45.577Z,56.91
2023-05-23T23:38:13.131Z,56.72
2023-05-23T23:40:40.805Z,57.09
2023-05-23T23:43:08.420Z,56.98
2023-05-23T23:45:35.867Z,56.79
2023-05-23T23:48:03.514Z,56.75
2023-05-23T23:50:31.727Z,57.46
2023-05-23T23:52:59.344Z,57.56
2023-05-23T23:55:26.718Z,57.92
2023-05-23T23:57:54.098Z,58.06
